createdAt,value
2022-12-05T00:01:37.540Z,51.58
2022-12-05T00:06:31.719Z,53.92
2022-12-05T00:08:58.331Z,58.78
2022-12-05T00:11:26.771Z,50.92
2022-12-05T00:13:54.456Z,52.80
2022-12-05T00:16:21.930Z,53.30
2022-12-05T00:18:48.696Z,56.72
2022-12-05T00:21:18.234Z,60.92
2022-12-05T00:23:44.708Z,58.80
2022-12-05T00:26:11.644Z,57.33
2022-12-05T00:28:38.735Z,60.17
2022-12-05T00:31:06.478Z,60.97
2022-12-05T00:33:32.909Z,58.40
2022-12-05T00:36:03.664Z,56.92
2022-12-05T00:38:30.255Z,62.33
2022-12-05T00:40:59.808Z,61.33
2022-12-05T00:43:26.302Z,62.70
2022-12-05T00:45:55.575Z,59.70
2022-12-05T00:48:22.036Z,58.08
2022-12-05T00:50:48.444Z,61.13
2022-12-05T00:53:14.864Z,56.17
2022-12-05T00:55:41.277Z,56.78
2022-12-05T00:58:07.738Z,63.80
2022-12-05T01:00:34.238Z,59.33
2022-12-05T01:03:00.799Z,61.05
2022-12-05T01:05:27.397Z,65.18
2022-12-05T01:07:56.212Z,63.50
2022-12-05T01:10:22.789Z,59.08
2022-12-05T01:12:49.359Z,61.03
2022-12-05T01:15:15.985Z,60.75
2022-12-05T01:17:42.499Z,57.15
2022-12-05T01:20:09.301Z,58.65
2022-12-05T01:22:35.755Z,55.38
2022-12-05T01:25:03.029Z,59.72
2022-12-05T01:27:29.610Z,57.95
2022-12-05T01:29:56.375Z,61.95
2022-12-05T01:32:23.067Z,59.85
2022-12-05T01:34:49.635Z,66.07
2022-12-05T01:37:16.147Z,66.03
2022-12-05T01:39:42.714Z,63.72
2022-12-05T01:42:09.237Z,61.55
2022-12-05T01:44:35.796Z,61.13
2022-12-05T01:47:02.322Z,64.05
2022-12-05T01:49:31.453Z,62.05
2022-12-05T01:52:03.720Z,64.03
2022-12-05T01:54:30.522Z,62.15
2022-12-05T01:57:06.480Z,65.93
2022-12-05T01:59:34.411Z,58.65
2022-12-05T02:02:01.098Z,65.13
2022-12-05T02:04:27.977Z,54.38
2022-12-05T02:06:54.618Z,66.72
2022-12-05T02:09:21.770Z,60.67
2022-12-05T02:11:56.858Z,65.18
2022-12-05T02:14:26.341Z,62.40
2022-12-05T02:17:12.184Z,72.40
2022-12-05T02:19:42.312Z,70.47
2022-12-05T02:22:28.839Z,66.75
2022-12-05T02:25:14.115Z,66.50
2022-12-05T02:28:09.966Z,64.68
2022-12-05T02:30:46.943Z,75.25
2022-12-05T02:33:32.158Z,66.72
2022-12-05T02:35:58.559Z,68.10
2022-12-05T02:38:48.425Z,75.15
2022-12-05T02:41:33.742Z,66.82
2022-12-05T02:44:03.240Z,68.95
2022-12-05T02:46:31.152Z,73.38
2022-12-05T02:49:00.218Z,64.68
2022-12-05T02:51:30.150Z,67.47
2022-12-05T02:53:58.436Z,69.97
2022-12-05T02:56:25.632Z,67.78
2022-12-05T02:58:53.882Z,66.53
2022-12-05T03:01:23.378Z,67.10
2022-12-05T03:03:50.072Z,78.75
2022-12-05T03:06:28.550Z,68.35
2022-12-05T03:08:58.140Z,70.63
2022-12-05T03:11:25.765Z,68.43
2022-12-05T03:13:55.203Z,68.68
2022-12-05T03:16:33.205Z,75.85
2022-12-05T03:19:03.188Z,74.38
2022-12-05T03:21:37.182Z,73.10
2022-12-05T03:24:06.635Z,74.97
2022-12-05T03:26:41.712Z,71.05
2022-12-05T03:29:08.106Z,75.28
2022-12-05T03:31:44.420Z,69.28
2022-12-05T03:34:15.926Z,73.25
2022-12-05T03:36:45.892Z,70.63
2022-12-05T03:39:18.477Z,70.35
2022-12-05T03:41:47.947Z,75.45
2022-12-05T03:44:14.444Z,68.47
2022-12-05T03:46:43.578Z,74.53
2022-12-05T03:49:16.292Z,67.60
2022-12-05T03:51:45.372Z,70.57
2022-12-05T03:54:16.070Z,73.57
2022-12-05T03:56:56.110Z,72.65
2022-12-05T03:59:37.851Z,76.25
2022-12-05T04:02:11.101Z,70.72
2022-12-05T04:04:46.636Z,74.80
2022-12-05T04:07:13.281Z,68.78
2022-12-05T04:09:50.441Z,63.75
2022-12-05T04:12:23.328Z,66.20
2022-12-05T04:14:51.557Z,68.63
2022-12-05T04:17:25.161Z,65.35
2022-12-05T04:22:37.079Z,63.58
2022-12-05T04:25:23.798Z,71.85
2022-12-05T04:28:08.825Z,66.65
2022-12-05T04:30:44.874Z,68.95
2022-12-05T04:33:16.854Z,70.25
2022-12-05T04:35:50.083Z,74.22
2022-12-05T04:38:27.911Z,70.65
2022-12-05T04:40:57.145Z,70.80
2022-12-05T04:43:25.404Z,75.07
2022-12-05T04:45:52.310Z,70.45
2022-12-05T04:48:19.195Z,78.70
2022-12-05T04:50:46.663Z,69.90
2022-12-05T04:53:14.263Z,81.97
2022-12-05T04:55:43.030Z,80.47
2022-12-05T04:58:11.273Z,81.55
2022-12-05T05:00:50.503Z,77.10
2022-12-05T05:03:19.464Z,79.97
2022-12-05T05:05:48.527Z,81.53
2022-12-05T05:08:22.524Z,76.40
2022-12-05T05:10:56.891Z,86.80
2022-12-05T05:13:23.311Z,82.65
2022-12-05T05:15:49.842Z,74.47
2022-12-05T05:18:16.303Z,81.85
2022-12-05T05:20:42.668Z,77.53
2022-12-05T05:23:09.173Z,79.95
2022-12-05T05:25:35.633Z,73.47
2022-12-05T05:28:02.178Z,76.00
2022-12-05T05:30:28.687Z,76.32
2022-12-05T05:32:55.091Z,74.63
2022-12-05T05:35:21.828Z,77.00
2022-12-05T05:37:48.249Z,77.30
2022-12-05T05:40:14.856Z,75.45
2022-12-05T05:42:48.411Z,81.45
2022-12-05T05:47:41.929Z,75.10
2022-12-05T05:50:09.388Z,81.10
2022-12-05T05:52:36.516Z,70.53
2022-12-05T05:55:04.964Z,75.72
2022-12-05T05:57:31.496Z,71.57
2022-12-05T05:59:58.292Z,80.63
2022-12-05T06:02:25.061Z,72.50
2022-12-05T06:04:51.604Z,74.00
2022-12-05T06:07:18.105Z,69.28
2022-12-05T06:09:44.545Z,70.95
2022-12-05T06:12:11.072Z,79.47
2022-12-05T06:14:37.499Z,72.78
2022-12-05T06:17:05.168Z,76.65
2022-12-05T06:19:31.696Z,78.00
2022-12-05T06:21:58.172Z,74.57
2022-12-05T06:24:24.621Z,69.45
2022-12-05T06:26:51.127Z,71.53
2022-12-05T06:29:20.596Z,71.40
2022-12-05T06:31:50.570Z,73.30
2022-12-05T06:34:17.343Z,64.53
2022-12-05T06:36:43.781Z,69.97
2022-12-05T06:39:10.269Z,72.75
2022-12-05T06:41:36.699Z,73.57
2022-12-05T06:44:03.142Z,72.05
2022-12-05T06:46:29.847Z,69.20
2022-12-05T06:48:56.819Z,73.72
2022-12-05T06:51:24.081Z,67.72
2022-12-05T06:53:50.519Z,62.78
2022-12-05T06:56:18.244Z,76.45
2022-12-05T06:58:45.290Z,68.13
2022-12-05T07:01:31.508Z,70.55
2022-12-05T07:03:58.456Z,71.97
2022-12-05T07:06:24.992Z,73.38
2022-12-05T07:08:51.507Z,72.75
2022-12-05T07:11:18.001Z,64.70
2022-12-05T07:13:44.417Z,66.15
2022-12-05T07:16:10.995Z,64.38
2022-12-05T07:18:38.911Z,66.20
2022-12-05T07:21:14.934Z,64.10
2022-12-05T07:23:42.646Z,73.25
2022-12-05T07:26:10.258Z,63.08
2022-12-05T07:28:36.730Z,67.28
2022-12-05T07:31:07.928Z,63.42
2022-12-05T07:33:34.612Z,65.78
2022-12-05T07:36:02.091Z,66.80
2022-12-05T07:38:29.078Z,65.32
2022-12-05T07:40:55.647Z,65.18
2022-12-05T07:43:22.052Z,60.40
2022-12-05T07:45:48.630Z,65.32
2022-12-05T07:48:18.513Z,64.82
2022-12-05T07:50:45.546Z,63.78
2022-12-05T07:53:12.035Z,63.80
2022-12-05T07:55:38.835Z,64.15
2022-12-05T07:58:05.427Z,64.13
2022-12-05T08:00:31.881Z,70.38
2022-12-05T08:02:58.409Z,59.47
2022-12-05T08:05:24.939Z,56.55
2022-12-05T08:07:51.396Z,62.70
2022-12-05T08:10:18.020Z,57.00
2022-12-05T08:12:44.412Z,60.35
2022-12-05T08:15:11.014Z,66.65
2022-12-05T08:17:37.539Z,60.17
2022-12-05T08:20:04.235Z,57.38
2022-12-05T08:22:30.715Z,60.03
2022-12-05T08:24:57.172Z,56.92
2022-12-05T08:27:23.698Z,62.08
2022-12-05T08:29:50.303Z,60.08
2022-12-05T08:32:16.873Z,63.33
2022-12-05T08:34:43.368Z,60.33
2022-12-05T08:37:09.949Z,56.35
2022-12-05T08:39:38.587Z,50.25
2022-12-05T08:42:05.689Z,55.92
2022-12-05T08:44:32.302Z,56.00
2022-12-05T08:46:59.085Z,56.45
2022-12-05T08:49:25.504Z,54.25
2022-12-05T08:51:52.011Z,55.60
2022-12-05T08:54:18.554Z,58.85
2022-12-05T08:56:45.307Z,53.20
2022-12-05T08:59:11.887Z,56.53
2022-12-05T09:01:39.606Z,57.55
2022-12-05T09:04:06.888Z,54.47
2022-12-05T09:06:34.588Z,49.35
2022-12-05T09:09:04.559Z,54.25
2022-12-05T09:11:32.451Z,56.45
2022-12-05T09:13:59.676Z,50.45
2022-12-05T09:16:35.218Z,53.70
2022-12-05T09:19:04.126Z,47.38
2022-12-05T09:21:31.433Z,52.17
2022-12-05T09:23:58.726Z,55.40
2022-12-05T09:26:26.188Z,58.33
2022-12-05T09:28:53.093Z,59.90
2022-12-05T09:31:21.448Z,54.08
2022-12-05T09:33:49.205Z,55.58
2022-12-05T09:36:20.995Z,56.80
2022-12-05T09:38:47.453Z,57.80
2022-12-05T09:41:13.835Z,55.17
2022-12-05T09:43:50.944Z,46.15
2022-12-05T09:46:25.011Z,50.17
2022-12-05T09:48:52.296Z,49.72
2022-12-05T09:51:18.947Z,62.08
2022-12-05T09:53:45.444Z,51.15
2022-12-05T09:56:17.621Z,49.15
2022-12-05T09:58:45.557Z,42.20
2022-12-05T10:01:12.315Z,45.63
2022-12-05T10:03:38.807Z,43.28
2022-12-05T10:06:11.313Z,44.85
2022-12-05T10:08:50.102Z,38.33
2022-12-05T10:11:25.107Z,37.22
2022-12-05T10:13:51.487Z,39.58
2022-12-05T10:16:20.732Z,34.78
2022-12-05T10:18:50.481Z,33.35
2022-12-05T10:21:22.869Z,33.85
2022-12-05T10:23:59.905Z,34.13
2022-12-05T10:26:29.568Z,31.85
2022-12-05T10:29:02.747Z,30.55
2022-12-05T10:31:33.941Z,31.33
2022-12-05T10:34:06.160Z,27.27
2022-12-05T10:36:32.736Z,26.52
2022-12-05T10:38:59.478Z,24.15
2022-12-05T10:41:26.074Z,25.60
2022-12-05T10:43:52.541Z,22.90
2022-12-05T10:46:19.726Z,22.85
2022-12-05T10:48:46.282Z,23.98
2022-12-05T10:51:17.881Z,25.80
2022-12-05T10:53:51.128Z,23.42
2022-12-05T10:56:36.635Z,18.77
2022-12-05T10:59:03.371Z,20.70
2022-12-05T11:01:30.881Z,18.55
2022-12-05T11:03:59.058Z,16.95
2022-12-05T11:06:30.339Z,16.73
2022-12-05T11:09:05.781Z,19.13
2022-12-05T11:11:36.092Z,24.92
2022-12-05T11:14:04.035Z,18.95
2022-12-05T11:16:33.074Z,19.77
2022-12-05T11:19:24.289Z,21.42
2022-12-05T11:21:51.085Z,19.88
2022-12-05T11:24:26.828Z,19.60
2022-12-05T11:26:53.371Z,24.20
2022-12-05T11:29:30.327Z,30.73
2022-12-05T11:31:56.945Z,33.53
2022-12-05T11:34:25.882Z,24.60
2022-12-05T11:37:01.490Z,22.92
2022-12-05T11:39:27.969Z,21.27
2022-12-05T11:42:03.548Z,22.25
2022-12-05T11:44:33.027Z,39.60
2022-12-05T11:47:11.768Z,23.00
2022-12-05T11:49:50.419Z,19.20
2022-12-05T11:52:48.174Z,31.83
2022-12-05T11:55:33.024Z,21.77
2022-12-05T11:57:59.467Z,24.88
2022-12-05T12:00:44.722Z,20.10
2022-12-05T12:03:20.447Z,18.65
2022-12-05T12:05:56.639Z,18.13
2022-12-05T12:08:30.996Z,17.23
2022-12-05T12:11:03.322Z,16.00
2022-12-05T12:14:08.388Z,13.20
2022-12-05T12:16:37.724Z,14.02
2022-12-05T12:19:09.974Z,13.68
2022-12-05T12:21:48.749Z,15.02
2022-12-05T12:24:15.276Z,15.18
2022-12-05T12:26:44.842Z,14.98
2022-12-05T12:29:29.602Z,14.23
2022-12-05T12:31:59.122Z,19.27
2022-12-05T12:34:31.724Z,15.32
2022-12-05T12:37:03.218Z,14.32
2022-12-05T12:39:32.736Z,14.15
2022-12-05T12:42:02.227Z,14.63
2022-12-05T12:44:28.676Z,14.90
2022-12-05T12:47:03.131Z,12.48
2022-12-05T12:49:29.644Z,13.77
2022-12-05T12:52:02.150Z,14.13
2022-12-05T12:55:01.670Z,13.70
2022-12-05T12:57:44.468Z,15.48
2022-12-05T13:00:10.870Z,17.02
2022-12-05T13:02:45.953Z,16.00
2022-12-05T13:05:21.583Z,14.88
2022-12-05T13:07:51.748Z,14.10
2022-12-05T13:10:21.360Z,14.80
2022-12-05T13:12:48.236Z,15.15
2022-12-05T13:15:16.704Z,13.88
2022-12-05T13:17:44.372Z,17.13
2022-12-05T13:20:16.387Z,15.50
2022-12-05T13:22:43.792Z,17.05
2022-12-05T13:25:14.398Z,14.45
2022-12-05T13:27:42.993Z,23.83
2022-12-05T13:30:17.730Z,27.70
2022-12-05T13:32:44.379Z,19.58
2022-12-05T13:35:12.078Z,17.80
2022-12-05T13:38:03.868Z,21.65
2022-12-05T13:40:50.842Z,17.55
2022-12-05T13:43:19.477Z,25.23
2022-12-05T13:45:55.231Z,30.27
2022-12-05T13:48:24.393Z,29.23
2022-12-05T13:51:13.102Z,23.15
2022-12-05T13:53:40.969Z,41.20
2022-12-05T13:56:07.623Z,37.08
2022-12-05T13:58:41.321Z,46.58
2022-12-05T14:03:34.190Z,36.10
2022-12-05T14:06:01.265Z,25.85
2022-12-05T14:08:30.801Z,24.85
2022-12-05T14:10:57.396Z,21.95
2022-12-05T14:13:24.048Z,25.17
2022-12-05T14:15:51.715Z,25.85
2022-12-05T14:18:21.273Z,25.42
2022-12-05T14:20:47.808Z,23.65
2022-12-05T14:23:17.297Z,22.60
2022-12-05T14:25:58.977Z,23.05
2022-12-05T14:28:38.855Z,22.77
2022-12-05T14:31:18.822Z,25.30
2022-12-05T14:33:45.305Z,23.05
2022-12-05T14:36:17.135Z,23.65
2022-12-05T14:38:44.283Z,27.20
2022-12-05T14:41:12.144Z,23.80
2022-12-05T14:43:39.136Z,41.65
2022-12-05T14:46:08.153Z,32.63
2022-12-05T14:48:34.707Z,27.70
2022-12-05T14:51:01.481Z,57.22
2022-12-05T14:53:31.431Z,30.98
2022-12-05T14:56:00.978Z,29.88
2022-12-05T14:58:27.386Z,29.55
2022-12-05T15:00:58.174Z,28.20
2022-12-05T15:03:30.167Z,29.88
2022-12-05T15:06:03.125Z,28.55
2022-12-05T15:08:33.095Z,30.50
2022-12-05T15:11:00.517Z,31.23
2022-12-05T15:13:28.579Z,28.67
2022-12-05T15:15:59.255Z,33.55
2022-12-05T15:18:38.642Z,35.22
2022-12-05T15:21:05.388Z,34.65
2022-12-05T15:23:55.109Z,37.75
2022-12-05T15:26:49.292Z,39.88
2022-12-05T15:29:15.962Z,37.47
2022-12-05T15:31:48.794Z,31.98
2022-12-05T15:34:25.776Z,38.80
2022-12-05T15:36:57.586Z,30.33
2022-12-05T15:39:26.189Z,31.25
2022-12-05T15:41:53.458Z,40.10
2022-12-05T15:44:26.707Z,36.65
2022-12-05T15:46:54.392Z,33.53
2022-12-05T15:49:25.919Z,28.42
2022-12-05T15:51:55.525Z,31.88
2022-12-05T15:54:29.095Z,31.30
2022-12-05T15:57:16.607Z,32.92
2022-12-05T15:59:47.024Z,27.50
2022-12-05T16:02:19.394Z,32.38
2022-12-05T16:04:57.948Z,28.17
2022-12-05T16:07:29.187Z,29.02
2022-12-05T16:09:57.049Z,29.83
2022-12-05T16:12:26.872Z,25.83
2022-12-05T16:15:00.396Z,26.13
2022-12-05T16:17:28.978Z,29.45
2022-12-05T16:20:09.605Z,32.70
2022-12-05T16:22:36.380Z,27.23
2022-12-05T16:25:05.705Z,28.55
2022-12-05T16:27:34.710Z,29.70
2022-12-05T16:30:16.673Z,28.55
2022-12-05T16:32:43.966Z,37.47
2022-12-05T16:35:28.936Z,36.22
2022-12-05T16:38:14.667Z,31.73
2022-12-05T16:40:42.608Z,41.78
2022-12-05T16:43:18.095Z,33.95
2022-12-05T16:45:45.546Z,37.55
2022-12-05T16:48:31.643Z,39.65
2022-12-05T16:51:13.500Z,35.67
2022-12-05T16:53:40.944Z,37.45
2022-12-05T16:56:12.399Z,33.95
2022-12-05T16:58:38.851Z,30.45
2022-12-05T17:01:06.371Z,29.55
2022-12-05T17:03:35.255Z,29.65
2022-12-05T17:06:02.388Z,36.15
2022-12-05T17:08:28.873Z,34.70
2022-12-05T17:10:55.849Z,32.50
2022-12-05T17:13:22.397Z,32.30
2022-12-05T17:15:48.932Z,26.08
2022-12-05T17:18:26.606Z,28.60
2022-12-05T17:20:56.976Z,23.48
2022-12-05T17:23:24.554Z,29.17
2022-12-05T17:25:55.505Z,27.42
2022-12-05T17:28:22.516Z,26.73
2022-12-05T17:30:49.003Z,26.33
2022-12-05T17:33:16.832Z,25.42
2022-12-05T17:35:43.295Z,24.77
2022-12-05T17:38:10.850Z,22.30
2022-12-05T17:40:38.073Z,21.75
2022-12-05T17:43:04.855Z,22.75
2022-12-05T17:45:31.599Z,20.77
2022-12-05T17:47:58.107Z,24.27
2022-12-05T17:50:25.117Z,22.42
2022-12-05T17:52:54.384Z,24.85
2022-12-05T17:55:23.029Z,28.23
2022-12-05T17:57:49.634Z,24.67
2022-12-05T18:00:17.007Z,21.20
2022-12-05T18:02:44.250Z,21.35
2022-12-05T18:05:11.901Z,19.35
2022-12-05T18:07:38.766Z,23.00
2022-12-05T18:10:11.156Z,18.65
2022-12-05T18:12:39.387Z,20.77
2022-12-05T18:15:06.329Z,16.05
2022-12-05T18:17:32.984Z,18.13
2022-12-05T18:19:59.710Z,15.90
2022-12-05T18:22:27.076Z,17.50
2022-12-05T18:24:54.420Z,16.17
2022-12-05T18:27:21.348Z,14.80
2022-12-05T18:29:48.476Z,15.65
2022-12-05T18:32:16.038Z,15.07
2022-12-05T18:34:42.596Z,12.77
2022-12-05T18:37:10.595Z,16.30
2022-12-05T18:39:37.926Z,15.50
2022-12-05T18:42:09.008Z,14.15
2022-12-05T18:44:40.001Z,13.45
2022-12-05T18:47:06.616Z,11.05
2022-12-05T18:49:33.278Z,13.25
2022-12-05T18:52:00.301Z,11.48
2022-12-05T18:54:26.842Z,13.93
2022-12-05T18:56:53.624Z,11.70
2022-12-05T18:59:20.772Z,10.93
2022-12-05T19:01:47.943Z,13.23
2022-12-05T19:04:15.823Z,12.23
2022-12-05T19:06:47.123Z,15.70
2022-12-05T19:09:17.105Z,14.68
2022-12-05T19:11:47.702Z,13.52
2022-12-05T19:14:15.044Z,14.10
2022-12-05T19:16:42.136Z,13.85
2022-12-05T19:19:14.443Z,15.27
2022-12-05T19:21:42.822Z,14.48
2022-12-05T19:24:27.698Z,14.93
2022-12-05T19:26:54.910Z,13.77
2022-12-05T19:29:25.615Z,14.18
2022-12-05T19:31:52.563Z,13.95
2022-12-05T19:34:19.615Z,14.48
2022-12-05T19:36:46.960Z,16.00
2022-12-05T19:39:18.229Z,19.17
2022-12-05T19:41:56.605Z,16.15
2022-12-05T19:44:23.591Z,15.75
2022-12-05T19:46:53.470Z,14.32
2022-12-05T19:49:30.682Z,16.50
2022-12-05T19:51:57.786Z,14.23
2022-12-05T19:54:25.186Z,14.10
2022-12-05T19:56:52.260Z,14.60
2022-12-05T19:59:19.584Z,16.08
2022-12-05T20:01:46.446Z,14.00
2022-12-05T20:04:15.068Z,14.00
2022-12-05T20:06:43.153Z,13.88
2022-12-05T20:09:10.982Z,15.30
2022-12-05T20:11:41.529Z,13.73
2022-12-05T20:14:09.693Z,15.30
2022-12-05T20:16:36.902Z,14.65
2022-12-05T20:19:03.713Z,14.00
2022-12-05T20:21:32.368Z,14.50
2022-12-05T20:23:59.748Z,14.65
2022-12-05T20:26:33.144Z,15.90
2022-12-05T20:29:01.079Z,15.02
2022-12-05T20:31:29.318Z,14.50
2022-12-05T20:33:55.954Z,13.75
2022-12-05T20:36:26.527Z,13.95
2022-12-05T20:39:04.056Z,14.57
2022-12-05T20:41:30.746Z,13.27
2022-12-05T20:43:58.680Z,15.80
2022-12-05T20:46:26.216Z,14.77
2022-12-05T20:48:53.527Z,14.85
2022-12-05T20:51:23.999Z,12.82
2022-12-05T20:53:51.292Z,13.63
2022-12-05T20:56:19.231Z,13.95
2022-12-05T20:58:46.880Z,15.07
2022-12-05T21:01:13.795Z,14.20
2022-12-05T21:03:41.973Z,13.68
2022-12-05T21:06:10.695Z,16.50
2022-12-05T21:08:37.814Z,13.70
2022-12-05T21:11:05.444Z,16.35
2022-12-05T21:13:32.244Z,15.02
2022-12-05T21:16:02.009Z,19.05
2022-12-05T21:18:29.050Z,17.77
2022-12-05T21:20:59.798Z,15.55
2022-12-05T21:23:26.463Z,17.83
2022-12-05T21:25:53.666Z,15.30
2022-12-05T21:28:20.927Z,16.08
2022-12-05T21:30:47.787Z,18.25
2022-12-05T21:33:14.390Z,16.75
2022-12-05T21:35:41.090Z,18.45
2022-12-05T21:38:07.523Z,15.82
2022-12-05T21:40:33.983Z,15.38
2022-12-05T21:43:00.452Z,18.73
2022-12-05T21:45:27.389Z,17.80
2022-12-05T21:47:53.992Z,15.80
2022-12-05T21:50:20.643Z,17.10
2022-12-05T21:52:47.215Z,16.50
2022-12-05T21:55:13.664Z,20.98
2022-12-05T21:57:40.341Z,16.05
2022-12-05T22:00:09.879Z,19.60
2022-12-05T22:02:36.874Z,18.45
2022-12-05T22:05:03.780Z,18.50
2022-12-05T22:07:30.262Z,20.85
2022-12-05T22:09:57.091Z,16.65
2022-12-05T22:12:23.911Z,18.25
2022-12-05T22:14:50.457Z,18.60
2022-12-05T22:17:17.035Z,18.75
2022-12-05T22:19:43.716Z,22.02
2022-12-05T22:22:10.758Z,16.23
2022-12-05T22:24:37.444Z,16.80
2022-12-05T22:27:03.952Z,17.17
2022-12-05T22:29:30.728Z,17.30
2022-12-05T22:31:57.303Z,17.80
2022-12-05T22:34:24.004Z,18.77
2022-12-05T22:36:51.868Z,17.35
2022-12-05T22:39:18.781Z,16.90
2022-12-05T22:41:45.271Z,19.38
2022-12-05T22:44:11.723Z,17.50
2022-12-05T22:46:38.356Z,16.83
2022-12-05T22:49:05.078Z,17.35
2022-12-05T22:51:32.589Z,15.95
2022-12-05T22:53:59.069Z,16.90
2022-12-05T22:56:26.474Z,17.60
2022-12-05T22:58:53.986Z,17.05
2022-12-05T23:01:21.745Z,18.70
2022-12-05T23:03:49.196Z,18.02
2022-12-05T23:06:16.658Z,17.95
2022-12-05T23:08:44.236Z,21.10
2022-12-05T23:11:11.176Z,21.60
2022-12-05T23:13:40.571Z,20.27
2022-12-05T23:16:08.258Z,21.20
2022-12-05T23:18:48.118Z,19.48
2022-12-05T23:21:29.547Z,21.73
2022-12-05T23:23:57.437Z,21.33
2022-12-05T23:26:25.283Z,17.67
2022-12-05T23:28:52.238Z,18.85
2022-12-05T23:31:19.341Z,17.10
2022-12-05T23:33:48.525Z,16.42
2022-12-05T23:36:18.215Z,14.13
2022-12-05T23:38:44.840Z,13.05
2022-12-05T23:41:12.834Z,12.68
2022-12-05T23:43:39.764Z,12.82
2022-12-05T23:46:06.452Z,12.52
2022-12-05T23:48:33.269Z,14.82
2022-12-05T23:51:01.130Z,15.48
2022-12-05T23:53:29.025Z,12.13
2022-12-05T23:55:55.615Z,14.30
2022-12-05T23:58:22.260Z,11.23
